Time;durP1;ratioP1;P1;durP2;ratioP2;P2;SDS_P1;SDS_P2;PMS_P1;PMS_P2;Temp;Humidity;BMP_temperature;BMP_pressure;BME280_temperature;BME280_humidity;BME280_pressure;Samples;Min_cycle;Max_cycle;Signal;HPM_P1;HPM_P2
2022/12/02 00:02:21;;;;;;;;;;;;;;;;;;5005781;28;1389;-67
2022/12/02 00:04:48;;;;;;;;;;;;;;;;;;5017873;28;4895;-67
2022/12/02 00:07:14;;;;;;;;;;;;;;;;;;5042882;28;4870;-67
2022/12/02 00:09:40;;;;;;;;;;;;;;;;;;5022736;28;4704;-66
2022/12/02 00:12:31;;;;;;;;;;;;;;;;;;5041764;28;4709;-67
2022/12/02 00:14:58;;;;;;;;;;;;;;;;;;4997732;28;5230;-66
2022/12/02 00:17:24;;;;;;;;;;;;;;;;;;5016706;28;5129;-66
2022/12/02 00:19:49;;;;;;;;;;;;;;;;;;5042066;28;1163;-67
2022/12/02 00:22:14;;;;;;;;;;;;;;;;;;5031271;28;5242;-67
2022/12/02 00:24:39;;;;;;;;;;;;;;;;;;5031645;28;5487;-67
2022/12/02 00:27:05;;;;;;;;;;;;;;;;;;5046367;28;4451;-67
2022/12/02 00:29:30;;;;;;;;;;;;;;;;;;5022044;28;5091;-67
2022/12/02 00:31:55;;;;;;;;;;;;;;;;;;5037108;28;1906;-66
2022/12/02 00:34:20;;;;;;;;;;;;;;;;;;5029118;28;5116;-67
2022/12/02 00:36:46;;;;;;;;;;;;;;;;;;5026022;28;4491;-67
2022/12/02 00:39:11;;;;;;;;;;;;;;;;;;5024830;28;5719;-66
2022/12/02 00:41:36;;;;;;;;;;;;;;;;;;5018507;28;4554;-65
2022/12/02 00:46:45;;;;;;;;;;;;;;;;;;5013134;28;4859;-67
2022/12/02 00:49:11;;;;;;;;;;;;;;;;;;5024370;28;4548;-67
2022/12/02 00:51:36;;;;;;;;;;;;;;;;;;5026228;28;4933;-65
2022/12/02 00:54:02;;;;;;;;;;;;;;;;;;5022832;28;5050;-66
2022/12/02 00:56:27;;;;;;;;;;;;;;;;;;5020257;28;4848;-67
2022/12/02 00:58:53;;;;;;;;;;;;;;;;;;5028192;28;1603;-68
2022/12/02 01:01:18;;;;;;;;;;;;;;;;;;5029667;28;5299;-67
2022/12/02 01:03:43;;;;;;;;;;;;;;;;;;5014636;28;5033;-67
2022/12/02 01:06:09;;;;;;;;;;;;;;;;;;5008622;28;4980;-68
2022/12/02 01:08:34;;;;;;;;;;;;;;;;;;5021939;28;5042;-66
2022/12/02 01:10:59;;;;;;;;;;;;;;;;;;5017339;28;1185;-67
2022/12/02 01:13:25;;;;;;;;;;;;;;;;;;5027153;28;4422;-67
2022/12/02 01:15:50;;;;;;;;;;;;;;;;;;5025864;28;5014;-67
2022/12/02 01:18:15;;;;;;;;;;;;;;;;;;5031821;28;5137;-66
2022/12/02 01:20:41;;;;;;;;;;;;;;;;;;5010435;28;5244;-67
2022/12/02 01:23:06;;;;;;;;;;;;;;;;;;5010671;28;1343;-68
2022/12/02 01:25:31;;;;;;;;;;;;;;;;;;5003844;28;4860;-67
2022/12/02 01:27:56;;;;;;;;;;;;;;;;;;5004758;28;4477;-68
2022/12/02 01:30:22;;;;;;;;;;;;;;;;;;5017032;28;4993;-66
2022/12/02 01:32:47;;;;;;;;;;;;;;;;;;5022186;28;4496;-67
2022/12/02 01:35:12;;;;;;;;;;;;;;;;;;5011071;28;999;-67
2022/12/02 01:37:37;;;;;;;;;;;;;;;;;;5028270;28;4975;-67
2022/12/02 01:40:03;;;;;;;;;;;;;;;;;;5028850;28;5101;-67
2022/12/02 01:42:28;;;;;;;;;;;;;;;;;;5028467;28;5305;-68
2022/12/02 01:44:54;;;;;;;;;;;;;;;;;;5017968;28;5054;-67
2022/12/02 01:47:19;;;;;;;;;;;;;;;;;;5022644;28;3258;-67
2022/12/02 01:49:44;;;;;;;;;;;;;;;;;;5024935;28;4902;-69
2022/12/02 01:52:09;;;;;;;;;;;;;;;;;;5024902;28;5015;-68
2022/12/02 01:54:35;;;;;;;;;;;;;;;;;;5032333;28;5388;-67
2022/12/02 01:57:00;;;;;;;;;;;;;;;;;;5017772;28;5202;-67
2022/12/02 01:59:25;;;;;;;;;;;;;;;;;;5029356;28;5203;-68
2022/12/02 02:01:51;;;;;;;;;;;;;;;;;;5023586;28;3332;-67
2022/12/02 02:04:17;;;;;;;;;;;;;;;;;;5023847;28;4770;-69
2022/12/02 02:06:43;;;;;;;;;;;;;;;;;;5044446;28;5098;-68
2022/12/02 02:09:08;;;;;;;;;;;;;;;;;;5025997;28;4472;-67
2022/12/02 02:11:34;;;;;;;;;;;;;;;;;;5025773;28;4483;-68
2022/12/02 02:13:59;;;;;;;;;;;;;;;;;;5020703;28;3231;-68
2022/12/02 02:16:24;;;;;;;;;;;;;;;;;;5041051;28;5133;-68
2022/12/02 02:18:50;;;;;;;;;;;;;;;;;;5029069;28;4964;-67
2022/12/02 02:21:17;;;;;;;;;;;;;;;;;;5029016;28;5519;-65
2022/12/02 02:23:42;;;;;;;;;;;;;;;;;;5033049;28;5111;-69
2022/12/02 02:26:07;;;;;;;;;;;;;;;;;;5044624;28;1340;-68
2022/12/02 02:28:33;;;;;;;;;;;;;;;;;;5022000;28;5383;-69
2022/12/02 02:30:58;;;;;;;;;;;;;;;;;;5028783;28;4466;-67
2022/12/02 02:33:23;;;;;;;;;;;;;;;;;;5033926;28;5046;-66
2022/12/02 02:35:48;;;;;;;;;;;;;;;;;;5015397;28;5075;-67
2022/12/02 02:38:14;;;;;;;;;;;;;;;;;;5024812;28;2985;-67
2022/12/02 02:40:40;;;;;;;;;;;;;;;;;;5029973;28;4989;-67
2022/12/02 02:43:05;;;;;;;;;;;;;;;;;;5023536;28;5228;-67
2022/12/02 02:45:32;;;;;;;;;;;;;;;;;;5025278;28;4999;-67
2022/12/02 02:47:57;;;;;;;;;;;;;;;;;;5015370;28;5243;-67
2022/12/02 02:50:23;;;;;;;;;;;;;;;;;;5007672;28;1580;-67
2022/12/02 02:52:48;;;;;;;;;;;;;;;;;;5037057;28;4787;-67
2022/12/02 02:55:17;;;;;;;;;;;;;;;;;;5034486;28;4984;-67
2022/12/02 02:57:42;;;;;;;;;;;;;;;;;;5034810;28;5094;-66
2022/12/02 03:00:08;;;;;;;;;;;;;;;;;;5012612;28;4930;-66
2022/12/02 03:02:33;;;;;;;;;;;;;;;;;;5023732;28;5099;-67
2022/12/02 03:04:58;;;;;;;;;;;;;;;;;;5017797;28;2268;-69
2022/12/02 03:07:23;;;;;;;;;;;;;;;;;;5022083;28;4912;-67
2022/12/02 03:09:49;;;;;;;;;;;;;;;;;;5016757;28;5095;-67
2022/12/02 03:12:14;;;;;;;;;;;;;;;;;;5024815;28;5649;-66
2022/12/02 03:14:39;;;;;;;;;;;;;;;;;;5012216;28;5047;-67
2022/12/02 03:17:05;;;;;;;;;;;;;;;;;;5024177;28;3233;-67
2022/12/02 03:19:30;;;;;;;;;;;;;;;;;;5016921;28;5112;-67
2022/12/02 03:21:55;;;;;;;;;;;;;;;;;;5008411;28;5089;-66
2022/12/02 03:24:21;;;;;;;;;;;;;;;;;;5036923;28;5193;-67
2022/12/02 03:26:46;;;;;;;;;;;;;;;;;;5005815;28;5002;-67
2022/12/02 03:29:11;;;;;;;;;;;;;;;;;;5023659;28;1245;-68
2022/12/02 03:31:36;;;;;;;;;;;;;;;;;;5017225;28;4971;-67
2022/12/02 03:34:02;;;;;;;;;;;;;;;;;;5026590;28;4532;-67
2022/12/02 03:36:27;;;;;;;;;;;;;;;;;;5041916;28;5047;-67
2022/12/02 03:38:52;;;;;;;;;;;;;;;;;;5016175;28;5035;-67
2022/12/02 03:41:18;;;;;;;;;;;;;;;;;;5023638;28;3300;-67
2022/12/02 03:43:43;;;;;;;;;;;;;;;;;;5016193;28;5789;-67
2022/12/02 03:46:08;;;;;;;;;;;;;;;;;;5017169;28;5414;-67
2022/12/02 03:48:34;;;;;;;;;;;;;;;;;;5026862;28;4983;-68
2022/12/02 03:50:59;;;;;;;;;;;;;;;;;;5018439;28;5103;-68
2022/12/02 03:53:25;;;;;;;;;;;;;;;;;;5026126;28;5186;-64
2022/12/02 03:55:50;;;;;;;;;;;;;;;;;;5015141;28;3300;-66
2022/12/02 03:58:15;;;;;;;;;;;;;;;;;;5022359;28;5323;-67
2022/12/02 04:00:40;;;;;;;;;;;;;;;;;;5023899;28;4452;-67
2022/12/02 04:03:06;;;;;;;;;;;;;;;;;;5012764;28;5362;-67
2022/12/02 04:05:31;;;;;;;;;;;;;;;;;;5034816;28;5194;-67
2022/12/02 04:07:56;;;;;;;;;;;;;;;;;;5019223;28;1359;-67
2022/12/02 04:10:22;;;;;;;;;;;;;;;;;;5030640;28;4840;-67
2022/12/02 04:12:47;;;;;;;;;;;;;;;;;;5036557;28;5138;-67
2022/12/02 04:15:12;;;;;;;;;;;;;;;;;;5024643;28;5304;-68
2022/12/02 04:17:37;;;;;;;;;;;;;;;;;;5031593;28;5090;-67
2022/12/02 04:20:04;;;;;;;;;;;;;;;;;;5025319;28;1172;-67
2022/12/02 04:22:29;;;;;;;;;;;;;;;;;;5026775;28;4744;-67
2022/12/02 04:24:57;;;;;;;;;;;;;;;;;;5022743;28;4472;-66
2022/12/02 04:27:23;;;;;;;;;;;;;;;;;;5021882;28;4889;-68
2022/12/02 04:29:48;;;;;;;;;;;;;;;;;;5024521;28;5185;-67
2022/12/02 04:32:13;;;;;;;;;;;;;;;;;;5026404;28;3235;-67
2022/12/02 04:34:38;;;;;;;;;;;;;;;;;;5022977;28;5197;-67
2022/12/02 04:37:04;;;;;;;;;;;;;;;;;;5030988;28;4650;-67
2022/12/02 04:39:29;;;;;;;;;;;;;;;;;;5030656;28;5027;-67
2022/12/02 04:41:54;;;;;;;;;;;;;;;;;;5026810;28;5076;-67
2022/12/02 04:44:19;;;;;;;;;;;;;;;;;;5027053;28;1077;-67
2022/12/02 04:46:44;;;;;;;;;;;;;;;;;;5029021;28;4977;-66
2022/12/02 04:49:10;;;;;;;;;;;;;;;;;;5027078;28;4616;-64
2022/12/02 04:51:35;;;;;;;;;;;;;;;;;;5030751;28;5078;-66
2022/12/02 04:54:00;;;;;;;;;;;;;;;;;;5019199;28;4933;-66
2022/12/02 04:56:25;;;;;;;;;;;;;;;;;;5014915;28;5049;-66
2022/12/02 04:58:51;;;;;;;;;;;;;;;;;;5024634;28;1134;-67
2022/12/02 05:01:16;;;;;;;;;;;;;;;;;;5030708;28;5126;-66
2022/12/02 05:03:41;;;;;;;;;;;;;;;;;;5027574;28;5005;-67
2022/12/02 05:06:06;;;;;;;;;;;;;;;;;;5028669;28;5128;-67
2022/12/02 05:08:32;;;;;;;;;;;;;;;;;;5030159;28;4660;-66
2022/12/02 05:10:57;;;;;;;;;;;;;;;;;;5028346;28;1217;-67
2022/12/02 05:13:22;;;;;;;;;;;;;;;;;;5022975;28;5064;-66
2022/12/02 05:15:47;;;;;;;;;;;;;;;;;;5030091;28;4489;-67
2022/12/02 05:18:13;;;;;;;;;;;;;;;;;;5029902;28;5198;-66
2022/12/02 05:20:38;;;;;;;;;;;;;;;;;;5024587;28;5147;-67
2022/12/02 05:23:03;;;;;;;;;;;;;;;;;;5024412;28;1201;-65
2022/12/02 05:25:28;;;;;;;;;;;;;;;;;;5017133;28;4441;-66
2022/12/02 05:27:54;;;;;;;;;;;;;;;;;;5030085;28;4933;-66
2022/12/02 05:30:19;;;;;;;;;;;;;;;;;;5029631;28;5124;-66
2022/12/02 05:32:45;;;;;;;;;;;;;;;;;;5021797;28;4695;-67
2022/12/02 05:35:10;;;;;;;;;;;;;;;;;;5023208;28;3489;-66
2022/12/02 05:37:35;;;;;;;;;;;;;;;;;;5029691;28;5096;-66
2022/12/02 05:40:00;;;;;;;;;;;;;;;;;;5021289;28;4465;-68
2022/12/02 05:42:26;;;;;;;;;;;;;;;;;;5029614;28;4891;-67
2022/12/02 05:44:51;;;;;;;;;;;;;;;;;;5020856;28;5160;-67
2022/12/02 05:47:16;;;;;;;;;;;;;;;;;;5023386;28;1828;-67
2022/12/02 05:49:42;;;;;;;;;;;;;;;;;;5029174;28;4993;-67
2022/12/02 05:52:20;;;;;;;;;;;;;;;;;;5026096;28;4947;-68
2022/12/02 05:54:45;;;;;;;;;;;;;;;;;;5022088;28;5253;-66
2022/12/02 05:57:10;;;;;;;;;;;;;;;;;;5029334;28;5552;-67
2022/12/02 05:59:35;;;;;;;;;;;;;;;;;;5025915;28;5179;-67
2022/12/02 06:02:01;;;;;;;;;;;;;;;;;;5027950;28;1464;-67
2022/12/02 06:04:27;;;;;;;;;;;;;;;;;;5028204;28;5084;-67
2022/12/02 06:06:53;;;;;;;;;;;;;;;;;;5026867;28;5046;-68
2022/12/02 06:09:25;;;;;;;;;;;;;;;;;;5028624;28;5073;-67
2022/12/02 06:11:50;;;;;;;;;;;;;;;;;;5014070;28;4914;-67
2022/12/02 06:14:17;;;;;;;;;;;;;;;;;;5033362;28;3444;-68
2022/12/02 06:16:43;;;;;;;;;;;;;;;;;;5028992;28;4929;-68
2022/12/02 06:19:13;;;;;;;;;;;;;;;;;;5029016;28;4926;-68
2022/12/02 06:21:39;;;;;;;;;;;;;;;;;;5038641;28;5124;-67
2022/12/02 06:24:04;;;;;;;;;;;;;;;;;;5042013;28;5152;-66
2022/12/02 06:26:30;;;;;;;;;;;;;;;;;;5043709;28;5082;-68
2022/12/02 06:28:58;;;;;;;;;;;;;;;;;;5029255;28;1158;-67
2022/12/02 06:31:24;;;;;;;;;;;;;;;;;;5027887;28;5055;-67
2022/12/02 06:33:50;;;;;;;;;;;;;;;;;;5025285;28;5137;-68
2022/12/02 06:36:17;;;;;;;;;;;;;;;;;;5019944;28;5038;-65
2022/12/02 06:38:58;;;;;;;;;;;;;;;;;;5016273;28;4922;-66
2022/12/02 06:41:24;;;;;;;;;;;;;;;;;;5031867;28;3163;-66
2022/12/02 06:46:33;;;;;;;;;;;;;;;;;;5024239;28;4985;-69
2022/12/02 06:48:59;;;;;;;;;;;;;;;;;;5018146;28;4773;-68
2022/12/02 06:51:24;;;;;;;;;;;;;;;;;;5024111;28;4954;-67
2022/12/02 06:53:49;;;;;;;;;;;;;;;;;;5026151;28;5074;-68
2022/12/02 06:56:27;;;;;;;;;;;;;;;;;;5024038;28;3133;-66
2022/12/02 06:59:02;;;;;;;;;;;;;;;;;;5016032;28;4402;-68
2022/12/02 07:01:32;;;;;;;;;;;;;;;;;;5020473;28;5161;-67
2022/12/02 07:04:00;;;;;;;;;;;;;;;;;;5029528;28;5126;-67
2022/12/02 07:06:26;;;;;;;;;;;;;;;;;;5013062;28;5050;-64
2022/12/02 07:08:51;;;;;;;;;;;;;;;;;;5014000;28;5023;-64
2022/12/02 07:14:08;;;;;;;;;;;;;;;;;;5007272;28;4600;-68
2022/12/02 07:16:34;;;;;;;;;;;;;;;;;;5019723;28;5000;-67
2022/12/02 07:18:59;;;;;;;;;;;;;;;;;;5007675;28;5190;-66
2022/12/02 07:21:24;;;;;;;;;;;;;;;;;;4988665;28;4839;-67
2022/12/02 07:23:49;;;;;;;;;;;;;;;;;;4997940;28;5652;-67
2022/12/02 07:26:15;;;;;;;;;;;;;;;;;;4994106;28;3696;-67
2022/12/02 07:28:40;;;;;;;;;;;;;;;;;;4999765;28;5024;-64
2022/12/02 07:31:11;;;;;;;;;;;;;;;;;;5003016;28;5017;-66
2022/12/02 07:33:36;;;;;;;;;;;;;;;;;;5010910;28;5249;-65
2022/12/02 07:36:02;;;;;;;;;;;;;;;;;;5017684;28;4704;-64
2022/12/02 07:38:27;;;;;;;;;;;;;;;;;;5028216;28;4522;-67
2022/12/02 07:40:52;;;;;;;;;;;;;;;;;;5028928;28;3485;-75
2022/12/02 07:43:18;;;;;;;;;;;;;;;;;;5024706;28;5237;-66
2022/12/02 07:45:43;;;;;;;;;;;;;;;;;;5017498;28;5132;-66
2022/12/02 07:48:08;;;;;;;;;;;;;;;;;;5031202;28;4670;-67
2022/12/02 07:50:33;;;;;;;;;;;;;;;;;;5032132;28;4465;-65
2022/12/02 07:52:59;;;;;;;;;;;;;;;;;;5023926;28;4667;-69
2022/12/02 07:55:24;;;;;;;;;;;;;;;;;;5041397;28;4967;-67
2022/12/02 07:57:49;;;;;;;;;;;;;;;;;;5015861;28;5402;-70
2022/12/02 08:00:15;;;;;;;;;;;;;;;;;;5026914;28;5060;-68
2022/12/02 08:02:40;;;;;;;;;;;;;;;;;;5013017;28;5145;-68
2022/12/02 08:05:06;;;;;;;;;;;;;;;;;;5025309;28;3356;-69
2022/12/02 08:07:31;;;;;;;;;;;;;;;;;;5018722;28;5042;-67
2022/12/02 08:09:56;;;;;;;;;;;;;;;;;;5019232;28;5639;-68
2022/12/02 08:12:22;;;;;;;;;;;;;;;;;;5024229;28;4994;-63
2022/12/02 08:14:47;;;;;;;;;;;;;;;;;;5027598;28;4536;-69
2022/12/02 08:17:12;;;;;;;;;;;;;;;;;;5018835;28;3611;-69
2022/12/02 08:19:37;;;;;;;;;;;;;;;;;;5018513;28;5171;-67
2022/12/02 08:22:03;;;;;;;;;;;;;;;;;;5015481;28;4496;-69
2022/12/02 08:24:28;;;;;;;;;;;;;;;;;;5014459;28;4677;-69
2022/12/02 08:26:53;;;;;;;;;;;;;;;;;;5014913;28;4906;-69
2022/12/02 08:29:18;;;;;;;;;;;;;;;;;;5013285;28;3675;-70
2022/12/02 08:31:44;;;;;;;;;;;;;;;;;;5017339;28;5001;-64
2022/12/02 08:34:09;;;;;;;;;;;;;;;;;;5019656;28;5208;-64
2022/12/02 08:36:34;;;;;;;;;;;;;;;;;;5012126;28;5086;-65
2022/12/02 08:39:04;;;;;;;;;;;;;;;;;;5018121;28;5335;-67
2022/12/02 08:41:29;;;;;;;;;;;;;;;;;;5015497;28;5154;-64
2022/12/02 08:43:54;;;;;;;;;;;;;;;;;;5022956;28;3625;-64
2022/12/02 08:46:20;;;;;;;;;;;;;;;;;;5021010;28;5013;-62
2022/12/02 08:48:45;;;;;;;;;;;;;;;;;;5026248;28;5122;-63
2022/12/02 08:51:10;;;;;;;;;;;;;;;;;;5041286;28;5133;-63
2022/12/02 08:53:36;;;;;;;;;;;;;;;;;;5019132;28;5025;-63
2022/12/02 08:56:01;;;;;;;;;;;;;;;;;;5015151;28;3616;-62
2022/12/02 08:58:26;;;;;;;;;;;;;;;;;;5020154;28;5094;-63
2022/12/02 09:00:51;;;;;;;;;;;;;;;;;;5021068;28;4924;-63
2022/12/02 09:03:17;;;;;;;;;;;;;;;;;;5023605;28;5167;-63
2022/12/02 09:05:42;;;;;;;;;;;;;;;;;;5020223;28;4497;-62
2022/12/02 09:08:07;;;;;;;;;;;;;;;;;;5020320;28;3628;-63
2022/12/02 09:10:32;;;;;;;;;;;;;;;;;;5024412;28;5053;-63
2022/12/02 09:12:58;;;;;;;;;;;;;;;;;;5027297;28;5373;-63
2022/12/02 09:15:23;;;;;;;;;;;;;;;;;;5019462;28;5255;-63
2022/12/02 09:17:48;;;;;;;;;;;;;;;;;;5031420;28;5152;-63
2022/12/02 09:20:14;;;;;;;;;;;;;;;;;;5019856;28;3670;-64
2022/12/02 09:22:39;;;;;;;;;;;;;;;;;;5020454;28;5244;-67
2022/12/02 09:25:04;;;;;;;;;;;;;;;;;;5011711;28;4526;-68
2022/12/02 09:27:30;;;;;;;;;;;;;;;;;;5019673;28;4547;-68
2022/12/02 09:29:55;;;;;;;;;;;;;;;;;;5027127;28;5165;-67
2022/12/02 09:32:20;;;;;;;;;;;;;;;;;;5018729;28;3504;-67
2022/12/02 09:34:46;;;;;;;;;;;;;;;;;;4989045;28;4519;-61
2022/12/02 09:37:11;;;;;;;;;;;;;;;;;;4989994;28;4488;-63
2022/12/02 09:39:36;;;;;;;;;;;;;;;;;;5005040;28;5260;-64
2022/12/02 09:42:01;;;;;;;;;;;;;;;;;;5003658;28;4919;-62
2022/12/02 09:44:27;;;;;;;;;;;;;;;;;;5003583;28;4585;-63
2022/12/02 09:46:52;;;;;;;;;;;;;;;;;;5021097;28;3622;-62
2022/12/02 09:49:17;;;;;;;;;;;;;;;;;;5017784;28;5224;-62
2022/12/02 09:51:42;;;;;;;;;;;;;;;;;;5026553;28;4980;-63
2022/12/02 09:54:08;;;;;;;;;;;;;;;;;;5031062;28;4610;-64
2022/12/02 09:56:34;;;;;;;;;;;;;;;;;;5040429;28;5364;-64
2022/12/02 09:58:59;;;;;;;;;;;;;;;;;;5031462;28;4035;-64
2022/12/02 10:01:25;;;;;;;;;;;;;;;;;;5024765;28;5081;-64
2022/12/02 10:03:50;;;;;;;;;;;;;;;;;;5019654;28;5011;-64
2022/12/02 10:06:25;;;;;;;;;;;;;;;;;;5025202;28;5096;-64
2022/12/02 10:08:51;;;;;;;;;;;;;;;;;;5040038;28;4477;-64
2022/12/02 10:11:23;;;;;;;;;;;;;;;;;;5038486;28;3613;-65
2022/12/02 10:13:48;;;;;;;;;;;;;;;;;;5036439;28;4843;-64
2022/12/02 10:16:13;;;;;;;;;;;;;;;;;;5012018;28;5865;-66
2022/12/02 10:18:39;;;;;;;;;;;;;;;;;;5038466;28;4536;-65
2022/12/02 10:21:04;;;;;;;;;;;;;;;;;;5017356;28;5100;-65
2022/12/02 10:23:29;;;;;;;;;;;;;;;;;;5015808;28;4912;-64
2022/12/02 10:26:08;;;;;;;;;;;;;;;;;;5000904;28;3809;-65
2022/12/02 10:28:34;;;;;;;;;;;;;;;;;;5025362;28;4846;-66
2022/12/02 10:31:08;;;;;;;;;;;;;;;;;;5022657;28;5083;-64
2022/12/02 10:33:35;;;;;;;;;;;;;;;;;;5023245;28;5145;-63
2022/12/02 10:36:01;;;;;;;;;;;;;;;;;;5015734;28;5595;-61
2022/12/02 10:38:35;;;;;;;;;;;;;;;;;;5023577;28;4556;-61
2022/12/02 10:41:19;;;;;;;;;;;;;;;;;;5022861;28;3343;-69
2022/12/02 10:43:59;;;;;;;;;;;;;;;;;;5018377;28;4814;-72
2022/12/02 10:46:24;;;;;;;;;;;;;;;;;;5020699;28;4658;-68
2022/12/02 10:48:50;;;;;;;;;;;;;;;;;;5025157;28;5436;-73
2022/12/02 10:51:15;;;;;;;;;;;;;;;;;;5025709;28;5189;-69
2022/12/02 10:53:42;;;;;;;;;;;;;;;;;;5012572;28;4594;-66
2022/12/02 10:56:15;;;;;;;;;;;;;;;;;;5020185;28;3863;-66
2022/12/02 10:58:41;;;;;;;;;;;;;;;;;;5010647;28;4859;-65
2022/12/02 11:01:07;;;;;;;;;;;;;;;;;;5031711;28;5141;-66
2022/12/02 11:03:32;;;;;;;;;;;;;;;;;;5027838;28;4711;-65
2022/12/02 11:05:58;;;;;;;;;;;;;;;;;;5012621;28;5153;-68
2022/12/02 11:08:24;;;;;;;;;;;;;;;;;;5012640;28;3646;-70
2022/12/02 11:10:50;;;;;;;;;;;;;;;;;;5018408;28;4720;-67
2022/12/02 11:13:29;;;;;;;;;;;;;;;;;;5023556;28;4620;-66
2022/12/02 11:15:54;;;;;;;;;;;;;;;;;;5020502;28;4669;-66
2022/12/02 11:18:28;;;;;;;;;;;;;;;;;;5036823;28;4896;-66
2022/12/02 11:20:54;;;;;;;;;;;;;;;;;;5025370;28;4491;-67
2022/12/02 11:23:20;;;;;;;;;;;;;;;;;;5012943;28;3420;-67
2022/12/02 11:25:47;;;;;;;;;;;;;;;;;;5021327;28;5092;-67
2022/12/02 11:28:28;;;;;;;;;;;;;;;;;;5019388;28;4549;-67
2022/12/02 11:31:08;;;;;;;;;;;;;;;;;;5021398;28;5397;-75
2022/12/02 11:33:42;;;;;;;;;;;;;;;;;;5022767;28;5070;-70
2022/12/02 11:36:08;;;;;;;;;;;;;;;;;;5017494;28;5133;-68
2022/12/02 11:38:51;;;;;;;;;;;;;;;;;;5020624;28;5018;-66
2022/12/02 11:41:17;;;;;;;;;;;;;;;;;;5017399;28;3426;-66
2022/12/02 11:43:45;;;;;;;;;;;;;;;;;;5015011;28;5024;-67
2022/12/02 11:46:11;;;;;;;;;;;;;;;;;;5022634;28;4658;-73
2022/12/02 11:48:53;;;;;;;;;;;;;;;;;;5015533;28;5174;-65
2022/12/02 11:51:27;;;;;;;;;;;;;;;;;;5022910;28;5397;-69
2022/12/02 11:53:52;;;;;;;;;;;;;;;;;;5016473;28;5320;-71
2022/12/02 11:56:18;;;;;;;;;;;;;;;;;;5023730;28;3410;-71
2022/12/02 11:58:43;;;;;;;;;;;;;;;;;;5031499;28;5088;-69
2022/12/02 12:01:11;;;;;;;;;;;;;;;;;;5026056;28;5061;-71
2022/12/02 12:03:39;;;;;;;;;;;;;;;;;;5029482;28;5045;-71
2022/12/02 12:06:20;;;;;;;;;;;;;;;;;;5023141;28;5048;-70
2022/12/02 12:08:50;;;;;;;;;;;;;;;;;;5048256;28;5915;-74
2022/12/02 12:11:33;;;;;;;;;;;;;;;;;;5037662;28;3438;-72
2022/12/02 12:14:11;;;;;;;;;;;;;;;;;;5039752;28;4678;-71
2022/12/02 12:16:41;;;;;;;;;;;;;;;;;;5019011;28;4902;-70
2022/12/02 12:19:12;;;;;;;;;;;;;;;;;;5021275;28;4508;-70
2022/12/02 12:21:41;;;;;;;;;;;;;;;;;;5033080;28;5024;-70
2022/12/02 12:24:21;;;;;;;;;;;;;;;;;;5032100;28;5177;-71
2022/12/02 12:26:46;;;;;;;;;;;;;;;;;;5022327;28;5174;-70
2022/12/02 12:29:11;;;;;;;;;;;;;;;;;;5036992;28;3508;-70
2022/12/02 12:31:36;;;;;;;;;;;;;;;;;;5022794;28;4681;-69
2022/12/02 12:34:02;;;;;;;;;;;;;;;;;;5003485;28;4997;-69
2022/12/02 12:36:27;;;;;;;;;;;;;;;;;;5007863;28;5127;-63
2022/12/02 12:38:52;;;;;;;;;;;;;;;;;;5005571;28;4930;-66
2022/12/02 12:41:18;;;;;;;;;;;;;;;;;;5008132;28;3229;-66
2022/12/02 12:43:43;;;;;;;;;;;;;;;;;;5020741;28;4450;-69
2022/12/02 12:46:08;;;;;;;;;;;;;;;;;;5023456;28;5023;-69
2022/12/02 12:48:34;;;;;;;;;;;;;;;;;;5014986;28;4540;-69
2022/12/02 12:50:59;;;;;;;;;;;;;;;;;;5021800;28;5675;-70
2022/12/02 12:53:24;;;;;;;;;;;;;;;;;;5027654;28;5534;-70
2022/12/02 12:55:49;;;;;;;;;;;;;;;;;;5019815;28;3263;-70
2022/12/02 12:58:15;;;;;;;;;;;;;;;;;;5028429;28;4950;-68
2022/12/02 13:00:40;;;;;;;;;;;;;;;;;;5027695;28;4991;-68
2022/12/02 13:03:05;;;;;;;;;;;;;;;;;;5017714;28;5020;-66
2022/12/02 13:05:31;;;;;;;;;;;;;;;;;;5015436;28;4729;-69
2022/12/02 13:07:56;;;;;;;;;;;;;;;;;;5027024;28;3380;-71
2022/12/02 13:10:21;;;;;;;;;;;;;;;;;;5020590;28;4900;-69
2022/12/02 13:12:47;;;;;;;;;;;;;;;;;;5016642;28;5599;-68
2022/12/02 13:15:12;;;;;;;;;;;;;;;;;;5035248;28;5103;-70
2022/12/02 13:17:37;;;;;;;;;;;;;;;;;;5023543;28;5071;-70
2022/12/02 13:20:03;;;;;;;;;;;;;;;;;;5004814;28;1066;-71
2022/12/02 13:22:29;;;;;;;;;;;;;;;;;;5013490;28;5000;-74
2022/12/02 13:24:54;;;;;;;;;;;;;;;;;;5034254;28;4476;-71
2022/12/02 13:27:19;;;;;;;;;;;;;;;;;;5017264;28;4488;-71
2022/12/02 13:29:44;;;;;;;;;;;;;;;;;;5010083;28;5009;-70
2022/12/02 13:32:10;;;;;;;;;;;;;;;;;;5019902;28;3396;-71
2022/12/02 13:34:35;;;;;;;;;;;;;;;;;;5017619;28;5033;-70
2022/12/02 13:37:00;;;;;;;;;;;;;;;;;;5025190;28;4915;-72
2022/12/02 13:39:25;;;;;;;;;;;;;;;;;;5022748;28;4655;-67
2022/12/02 13:41:51;;;;;;;;;;;;;;;;;;5025954;28;5204;-67
2022/12/02 13:44:16;;;;;;;;;;;;;;;;;;5022843;28;3299;-68
2022/12/02 13:46:41;;;;;;;;;;;;;;;;;;5017388;28;4503;-68
2022/12/02 13:49:06;;;;;;;;;;;;;;;;;;5016450;28;5308;-68
2022/12/02 13:51:32;;;;;;;;;;;;;;;;;;5019058;28;5135;-67
2022/12/02 13:53:57;;;;;;;;;;;;;;;;;;5019379;28;4656;-68
2022/12/02 13:56:22;;;;;;;;;;;;;;;;;;5021257;28;2135;-67
2022/12/02 13:58:47;;;;;;;;;;;;;;;;;;5029019;28;4828;-69
2022/12/02 14:01:13;;;;;;;;;;;;;;;;;;5025847;28;4479;-70
2022/12/02 14:03:39;;;;;;;;;;;;;;;;;;5019436;28;5078;-71
2022/12/02 14:06:04;;;;;;;;;;;;;;;;;;5026100;28;5042;-70
2022/12/02 14:08:29;;;;;;;;;;;;;;;;;;5028240;28;4466;-68
2022/12/02 14:10:54;;;;;;;;;;;;;;;;;;5024760;28;3067;-72
2022/12/02 14:13:20;;;;;;;;;;;;;;;;;;5032598;28;5237;-69
2022/12/02 14:15:45;;;;;;;;;;;;;;;;;;5008653;28;4614;-70
2022/12/02 14:18:11;;;;;;;;;;;;;;;;;;5025487;28;4926;-69
2022/12/02 14:20:36;;;;;;;;;;;;;;;;;;5024961;28;4876;-70
2022/12/02 14:23:01;;;;;;;;;;;;;;;;;;5011461;28;1414;-68
2022/12/02 14:25:27;;;;;;;;;;;;;;;;;;5013476;28;5083;-64
2022/12/02 14:27:52;;;;;;;;;;;;;;;;;;5005322;28;5054;-67
2022/12/02 14:30:20;;;;;;;;;;;;;;;;;;5011538;28;5174;-67
2022/12/02 14:32:45;;;;;;;;;;;;;;;;;;5024181;28;4759;-67
2022/12/02 14:35:10;;;;;;;;;;;;;;;;;;5018357;28;1269;-67
2022/12/02 14:37:36;;;;;;;;;;;;;;;;;;5020516;28;4859;-67
2022/12/02 14:40:03;;;;;;;;;;;;;;;;;;5020397;28;4440;-66
2022/12/02 14:42:28;;;;;;;;;;;;;;;;;;5018973;28;5051;-67
2022/12/02 14:44:53;;;;;;;;;;;;;;;;;;4997814;28;4937;-67
2022/12/02 14:47:19;;;;;;;;;;;;;;;;;;5024889;28;3026;-68
2022/12/02 14:49:44;;;;;;;;;;;;;;;;;;5010570;28;5017;-67
2022/12/02 14:52:10;;;;;;;;;;;;;;;;;;5013151;28;4590;-67
2022/12/02 14:54:35;;;;;;;;;;;;;;;;;;5029840;28;5324;-66
2022/12/02 14:57:00;;;;;;;;;;;;;;;;;;5012742;28;5017;-64
2022/12/02 14:59:26;;;;;;;;;;;;;;;;;;4994765;28;5642;-64
2022/12/02 15:01:51;;;;;;;;;;;;;;;;;;5019110;28;3366;-72
2022/12/02 15:04:16;;;;;;;;;;;;;;;;;;5015681;28;5046;-72
2022/12/02 15:06:43;;;;;;;;;;;;;;;;;;5021025;28;5065;-75
2022/12/02 15:09:09;;;;;;;;;;;;;;;;;;5023701;28;5035;-73
2022/12/02 15:11:34;;;;;;;;;;;;;;;;;;5018078;28;4950;-72
2022/12/02 15:14:00;;;;;;;;;;;;;;;;;;5005657;28;2038;-75
2022/12/02 15:16:25;;;;;;;;;;;;;;;;;;5017476;28;5155;-71
2022/12/02 15:18:50;;;;;;;;;;;;;;;;;;5024566;28;5278;-71
2022/12/02 15:21:16;;;;;;;;;;;;;;;;;;5023211;28;5029;-74
2022/12/02 15:23:41;;;;;;;;;;;;;;;;;;5014287;28;4933;-75
2022/12/02 15:26:07;;;;;;;;;;;;;;;;;;5017293;28;3375;-65
2022/12/02 15:28:32;;;;;;;;;;;;;;;;;;5013198;28;5163;-69
2022/12/02 15:30:58;;;;;;;;;;;;;;;;;;5014513;28;5233;-68
2022/12/02 15:33:23;;;;;;;;;;;;;;;;;;5003240;28;5094;-67
2022/12/02 15:35:48;;;;;;;;;;;;;;;;;;5001946;28;5059;-66
2022/12/02 15:38:14;;;;;;;;;;;;;;;;;;5012851;28;3456;-68
2022/12/02 15:40:39;;;;;;;;;;;;;;;;;;5015486;28;4941;-64
2022/12/02 15:43:05;;;;;;;;;;;;;;;;;;5004926;28;5863;-64
2022/12/02 15:45:30;;;;;;;;;;;;;;;;;;4992746;28;5006;-65
2022/12/02 15:47:56;;;;;;;;;;;;;;;;;;5000385;28;5110;-65
2022/12/02 15:50:21;;;;;;;;;;;;;;;;;;5017895;28;3572;-64
2022/12/02 15:52:46;;;;;;;;;;;;;;;;;;5014347;28;4967;-64
2022/12/02 15:55:11;;;;;;;;;;;;;;;;;;5023824;28;4986;-64
2022/12/02 15:57:36;;;;;;;;;;;;;;;;;;5009208;28;4693;-66
2022/12/02 16:00:03;;;;;;;;;;;;;;;;;;5015465;28;4987;-66
2022/12/02 16:02:28;;;;;;;;;;;;;;;;;;5016739;28;4766;-65
2022/12/02 16:04:53;;;;;;;;;;;;;;;;;;5022325;28;3598;-66
2022/12/02 16:07:19;;;;;;;;;;;;;;;;;;5027538;28;4936;-67
2022/12/02 16:09:44;;;;;;;;;;;;;;;;;;5023473;28;4707;-66
2022/12/02 16:12:09;;;;;;;;;;;;;;;;;;5027553;28;4661;-66
2022/12/02 16:14:34;;;;;;;;;;;;;;;;;;5019705;28;5040;-66
2022/12/02 16:16:59;;;;;;;;;;;;;;;;;;5028138;28;1236;-66
2022/12/02 16:19:25;;;;;;;;;;;;;;;;;;5027972;28;5076;-66
2022/12/02 16:21:50;;;;;;;;;;;;;;;;;;5020717;28;4980;-66
2022/12/02 16:24:15;;;;;;;;;;;;;;;;;;5024418;28;5025;-60
2022/12/02 16:26:41;;;;;;;;;;;;;;;;;;5024362;28;4580;-66
2022/12/02 16:29:06;;;;;;;;;;;;;;;;;;5033863;28;3396;-64
2022/12/02 16:31:31;;;;;;;;;;;;;;;;;;5028365;28;4924;-61
2022/12/02 16:33:57;;;;;;;;;;;;;;;;;;5020174;28;4578;-63
2022/12/02 16:36:22;;;;;;;;;;;;;;;;;;5021382;28;4888;-63
2022/12/02 16:38:47;;;;;;;;;;;;;;;;;;5021837;28;5210;-66
2022/12/02 16:41:13;;;;;;;;;;;;;;;;;;5030084;28;1104;-64
2022/12/02 16:43:38;;;;;;;;;;;;;;;;;;5027475;28;4843;-62
2022/12/02 16:46:03;;;;;;;;;;;;;;;;;;5022686;28;4804;-63
2022/12/02 16:48:29;;;;;;;;;;;;;;;;;;5036123;28;5386;-63
2022/12/02 16:50:54;;;;;;;;;;;;;;;;;;5021945;28;5126;-62
2022/12/02 16:53:19;;;;;;;;;;;;;;;;;;5011041;28;4842;-70
2022/12/02 16:55:44;;;;;;;;;;;;;;;;;;5021186;28;4999;-61
2022/12/02 16:58:09;;;;;;;;;;;;;;;;;;5024847;28;5531;-63
2022/12/02 17:02:04;;;;;;;;;;;;;;;;;;5110048;27;3687;-60
2022/12/02 17:04:30;;;;;;;;;;;;;;;;;;5092715;28;4724;-69
2022/12/02 17:06:55;;;;;;;;;;;;;;;;;;5108684;27;5011;-64